Time;durP1;ratioP1;P1;durP2;ratioP2;P2;SDS_P1;SDS_P2;PMS_P1;PMS_P2;Temp;Humidity;BMP_temperature;BMP_pressure;BME280_temperature;BME280_humidity;BME280_pressure;Samples;Min_cycle;Max_cycle;Signal;HPM_P1;HPM_P2
2021/10/31 00:02:07;;;;;;;;;4.75;3.50;;;;;19.70;47.22;100299.81;4995346;28;52235;-43
2021/10/31 00:04:32;;;;;;;;;6.00;4.25;;;;;19.72;46.91;100305.09;4995149;28;51182;-45
2021/10/31 00:06:58;;;;;;;;;4.75;4.75;;;;;19.71;47.23;100300.66;4994913;28;51054;-47
2021/10/31 00:09:23;;;;;;;;;4.00;4.00;;;;;19.71;47.27;100300.66;4995246;28;51094;-42
2021/10/31 00:11:48;;;;;;;;;6.75;5.00;;;;;19.71;47.17;100290.50;4994284;28;51816;-44
2021/10/31 00:14:14;;;;;;;;;5.00;5.00;;;;;19.70;47.23;100297.06;4994996;28;51027;-48
2021/10/31 00:16:39;;;;;;;;;5.50;5.00;;;;;19.71;47.06;100286.91;4994832;28;51024;-47
2021/10/31 00:19:04;;;;;;;;;4.50;4.50;;;;;19.70;46.88;100291.56;4994779;28;51305;-48
2021/10/31 00:21:30;;;;;;;;;8.00;5.75;;;;;19.70;47.33;100294.31;4994516;28;51866;-48
2021/10/31 00:23:56;;;;;;;;;5.00;4.00;;;;;19.69;47.21;100289.88;4994843;28;51046;-47
2021/10/31 00:26:22;;;;;;;;;5.00;5.00;;;;;19.69;47.24;100294.53;4999267;28;51128;-47
2021/10/31 00:28:47;;;;;;;;;4.75;4.75;;;;;19.69;47.26;100292.63;5014396;28;51147;-46
2021/10/31 00:31:12;;;;;;;;;3.75;3.75;;;;;19.69;47.32;100294.53;5014116;28;51872;-45
2021/10/31 00:33:38;;;;;;;;;5.00;5.00;;;;;19.69;47.15;100291.78;5014213;28;51194;-47
2021/10/31 00:36:04;;;;;;;;;4.00;4.00;;;;;19.69;47.02;100294.53;4996421;28;50988;-47
2021/10/31 00:38:30;;;;;;;;;5.00;3.75;;;;;19.69;47.50;100291.78;5014338;28;51126;-45
2021/10/31 00:40:55;;;;;;;;;6.00;5.25;;;;;19.69;47.30;100292.63;5014291;28;51009;-46
2021/10/31 00:43:21;;;;;;;;;4.00;4.00;;;;;19.69;47.26;100294.53;5014532;28;50971;-46
2021/10/31 00:45:46;;;;;;;;;5.25;4.00;;;;;19.68;47.05;100298.34;5014455;28;51512;-45
2021/10/31 00:48:12;;;;;;;;;6.00;4.25;;;;;19.69;47.11;100302.78;5014627;28;51294;-48
2021/10/31 00:50:38;;;;;;;;;5.00;3.50;;;;;19.68;46.92;100296.44;5013879;28;51019;-47
2021/10/31 00:53:04;;;;;;;;;4.50;4.50;;;;;19.68;47.03;100303.84;5014201;28;51066;-48
2021/10/31 00:55:30;;;;;;;;;4.50;3.75;;;;;19.68;47.37;100301.09;5013864;28;51085;-48
2021/10/31 00:57:57;;;;;;;;;3.75;3.75;;;;;19.67;47.17;100297.50;5014408;28;51124;-49
2021/10/31 01:00:22;;;;;;;;;6.00;4.00;;;;;19.68;47.26;100292.84;5013986;28;51055;-49
2021/10/31 01:02:48;;;;;;;;;5.50;4.00;;;;;19.68;47.19;100290.09;5013672;28;50908;-47
2021/10/31 01:05:17;;;;;;;;;6.00;5.00;;;;;19.67;47.24;100282.94;5013935;28;51025;-44
2021/10/31 01:08:10;;;;;;;;;7.00;4.00;;;;;19.67;47.08;100289.28;5014622;28;51018;-48
2021/10/31 01:10:47;;;;;;;;;5.25;4.25;;;;;19.66;47.20;100271.09;5013915;28;51054;-47
2021/10/31 01:13:36;;;;;;;;;4.75;4.50;;;;;19.65;47.45;100274.94;5014368;28;51232;-49
2021/10/31 01:16:24;;;;;;;;;5.75;5.50;;;;;19.66;47.36;100278.50;5014325;28;51152;-45
2021/10/31 01:19:14;;;;;;;;;4.00;3.75;;;;;19.66;47.08;100279.34;4996913;28;51126;-46
2021/10/31 01:22:21;;;;;;;;;2.50;2.50;;;;;19.65;47.18;100274.94;5017191;28;51115;-49
2021/10/31 01:24:59;;;;;;;;;4.75;3.25;;;;;19.65;47.19;100279.59;4990300;28;51100;-47
2021/10/31 01:27:46;;;;;;;;;3.00;3.00;;;;;19.64;47.23;100266.91;5004179;28;51141;-48
2021/10/31 01:30:25;;;;;;;;;4.50;2.75;;;;;19.64;47.27;100273.25;4997778;28;51381;-48
2021/10/31 01:33:36;;;;;;;;;5.25;3.75;;;;;19.64;47.28;100280.66;4997563;28;51174;-47
2021/10/31 01:36:30;;;;;;;;;4.75;4.75;;;;;19.63;47.13;100277.06;4997308;28;50992;-44
2021/10/31 01:38:59;;;;;;;;;5.50;4.00;;;;;19.63;47.13;100263.34;4997422;28;51084;-44
2021/10/31 01:42:02;;;;;;;;;4.00;3.50;;;;;19.63;47.44;100263.34;4997380;28;51075;-46
2021/10/31 01:44:39;;;;;;;;;5.00;4.00;;;;;19.63;47.11;100260.59;4997070;28;51031;-45
2021/10/31 01:47:34;;;;;;;;;4.00;4.00;;;;;19.62;47.08;100250.66;4997430;28;51019;-45
2021/10/31 01:50:13;;;;;;;;;2.00;2.00;;;;;19.63;47.05;100246.00;4997180;28;51106;-45
2021/10/31 01:52:48;;;;;;;;;3.50;3.50;;;;;19.62;47.35;100242.44;4997363;28;51050;-44
2021/10/31 01:55:41;;;;;;;;;3.00;3.00;;;;;19.62;47.22;100236.09;4996828;28;50967;-44
2021/10/31 01:58:09;;;;;;;;;4.75;4.00;;;;;19.63;47.38;100237.78;4996380;28;51296;-49
2021/10/31 02:00:38;;;;;;;;;2.00;2.00;;;;;19.63;47.55;100243.25;4997128;28;51016;-50
2021/10/31 02:03:06;;;;;;;;;3.50;3.50;;;;;19.62;46.97;100239.69;4997057;28;51329;-49
2021/10/31 02:05:37;;;;;;;;;3.00;2.00;;;;;19.62;46.92;100242.44;4996371;28;51098;-51
2021/10/31 02:08:06;;;;;;;;;5.25;3.00;;;;;19.61;47.40;100232.50;4996921;28;51095;-47
2021/10/31 02:10:33;;;;;;;;;5.00;3.25;;;;;19.63;47.22;100235.03;4997100;28;51095;-50
2021/10/31 02:13:01;;;;;;;;;4.00;2.25;;;;;19.63;47.33;100229.53;4996977;28;51363;-50
2021/10/31 02:15:28;;;;;;;;;5.50;3.25;;;;;19.62;47.22;100231.44;4979289;28;51951;-49
2021/10/31 02:17:55;;;;;;;;;3.00;3.00;;;;;19.63;47.39;100229.53;4996599;28;51290;-48
2021/10/31 02:20:23;;;;;;;;;5.00;3.00;;;;;19.62;47.16;100234.19;4996720;28;51072;-49
2021/10/31 02:22:56;;;;;;;;;3.00;3.00;;;;;19.60;47.28;100234.41;4997014;28;50926;-49
2021/10/31 02:25:23;;;;;;;;;3.75;2.75;;;;;19.62;47.21;100238.84;4996659;28;51721;-48
2021/10/31 02:27:49;;;;;;;;;2.50;2.50;;;;;19.60;47.00;100237.16;5012736;28;51024;-48
2021/10/31 02:30:14;;;;;;;;;3.75;2.25;;;;;19.60;47.08;100223.44;5014057;28;50979;-45
2021/10/31 02:32:40;;;;;;;;;2.25;2.25;;;;;19.60;47.16;100226.19;5016455;28;51249;-46
2021/10/31 02:35:11;;;;;;;;;3.00;3.00;;;;;19.61;47.12;100221.53;5016222;28;50980;-44
2021/10/31 02:37:38;;;;;;;;;4.00;3.00;;;;;19.61;47.01;100232.50;5016079;28;51231;-48
2021/10/31 02:40:05;;;;;;;;;2.00;2.00;;;;;19.60;47.30;100220.69;5016356;28;51193;-47
2021/10/31 02:42:31;;;;;;;;;3.75;3.25;;;;;19.60;47.01;100211.59;5016709;28;51329;-48
2021/10/31 02:44:56;;;;;;;;;3.00;3.00;;;;;19.60;47.06;100215.19;5016145;28;51763;-47
2021/10/31 02:47:31;;;;;;;;;5.00;3.25;;;;;19.59;46.98;100205.28;5016468;28;51129;-49
2021/10/31 02:49:57;;;;;;;;;5.00;3.25;;;;;19.60;47.16;100195.13;5015946;28;51014;-48
2021/10/31 02:52:32;;;;;;;;;3.00;2.00;;;;;19.58;47.15;100198.06;5016779;28;51378;-49
2021/10/31 02:55:15;;;;;;;;;3.00;3.00;;;;;19.59;46.50;100193.41;5016096;28;51219;-46
2021/10/31 02:58:12;;;;;;;;;2.25;2.25;;;;;19.59;47.23;100193.41;5016342;28;51107;-47
2021/10/31 03:00:40;;;;;;;;;1.75;1.75;;;;;19.58;47.02;100186.25;5015043;28;51061;-47
2021/10/31 03:03:07;;;;;;;;;2.25;2.00;;;;;19.58;47.20;100186.25;5016186;28;51063;-45
2021/10/31 03:05:34;;;;;;;;;3.00;2.25;;;;;19.56;46.85;100183.72;5015569;28;51063;-50
2021/10/31 03:08:00;;;;;;;;;3.25;2.00;;;;;19.57;47.10;100182.66;5016086;28;51386;-49
2021/10/31 03:10:26;;;;;;;;;3.50;3.50;;;;;19.58;46.91;100183.50;5016205;28;51107;-48
2021/10/31 03:12:51;;;;;;;;;2.25;2.00;;;;;19.57;46.85;100176.31;5015969;28;51016;-47
2021/10/31 03:15:18;;;;;;;;;2.00;2.00;;;;;19.57;46.83;100163.44;5015697;28;50994;-47
2021/10/31 03:17:44;;;;;;;;;1.75;1.75;;;;;19.57;47.16;100163.44;5015598;28;51125;-50
2021/10/31 03:20:10;;;;;;;;;3.00;3.00;;;;;19.56;47.28;100159.00;5015514;28;51079;-47
2021/10/31 03:22:36;;;;;;;;;2.50;1.50;;;;;19.57;47.03;100157.94;5015944;28;50983;-50
2021/10/31 03:25:02;;;;;;;;;2.75;2.75;;;;;19.56;47.28;100153.50;5015709;28;51774;-46
2021/10/31 03:27:27;;;;;;;;;4.00;3.00;;;;;19.56;47.02;100147.19;5001908;28;51007;-48
2021/10/31 03:29:53;;;;;;;;;3.25;3.25;;;;;19.56;46.97;100160.91;4995552;28;51064;-50
2021/10/31 03:32:18;;;;;;;;;2.75;2.75;;;;;19.55;46.97;100151.84;4995957;28;51096;-48
2021/10/31 03:34:44;;;;;;;;;2.00;1.00;;;;;19.55;47.20;100145.47;4995521;28;52265;-48
2021/10/31 03:37:09;;;;;;;;;3.00;3.00;;;;;19.56;47.08;100147.19;4995734;28;51016;-47
2021/10/31 03:39:35;;;;;;;;;4.75;3.25;;;;;19.55;46.88;100142.72;4995893;28;51121;-49
2021/10/31 03:42:00;;;;;;;;;1.75;1.75;;;;;19.54;47.27;100152.88;4995429;28;51288;-49
2021/10/31 03:44:26;;;;;;;;;4.00;3.00;;;;;19.54;47.39;100150.13;4995373;28;51016;-47
2021/10/31 03:46:51;;;;;;;;;2.00;2.00;;;;;19.54;47.43;100141.06;4995781;28;50881;-46
2021/10/31 03:49:18;;;;;;;;;2.50;2.50;;;;;19.54;46.95;100132.81;4995517;28;51248;-47
2021/10/31 03:51:44;;;;;;;;;2.25;2.25;;;;;19.54;47.03;100146.56;4995667;28;51231;-47
2021/10/31 03:54:10;;;;;;;;;1.75;1.50;;;;;19.54;47.24;100139.16;4995352;28;51042;-45
2021/10/31 03:56:35;;;;;;;;;3.00;3.00;;;;;19.54;47.16;100144.63;4995584;28;50983;-50
2021/10/31 03:59:01;;;;;;;;;2.25;2.25;;;;;19.54;47.35;100141.06;4995752;28;51220;-46
2021/10/31 04:01:28;;;;;;;;;6.00;3.75;;;;;19.53;47.12;100129.22;4995650;28;50989;-50
2021/10/31 04:03:54;;;;;;;;;2.00;2.00;;;;;19.53;47.31;100129.22;4995221;28;51994;-46
2021/10/31 04:06:19;;;;;;;;;3.00;2.00;;;;;19.52;47.25;100132.22;4995101;28;51058;-46
2021/10/31 04:08:45;;;;;;;;;1.75;0.75;;;;;19.52;47.27;100124.81;4995399;28;51090;-44
2021/10/31 04:11:10;;;;;;;;;5.00;3.00;;;;;19.52;47.24;100124.81;4995575;28;51091;-47
2021/10/31 04:13:36;;;;;;;;;2.00;2.00;;;;;19.52;47.17;100115.72;4994996;28;51118;-47
2021/10/31 04:16:02;;;;;;;;;3.25;2.00;;;;;19.51;46.92;100111.31;4995393;28;51051;-50
2021/10/31 04:18:28;;;;;;;;;3.00;3.00;;;;;19.50;47.14;100110.47;4994883;28;51245;-47
2021/10/31 04:20:53;;;;;;;;;3.25;3.25;;;;;19.50;47.02;100101.41;4995445;28;50943;-44
2021/10/31 04:23:18;;;;;;;;;4.00;1.50;;;;;19.51;47.07;100098.41;4995250;28;51725;-44
2021/10/31 04:25:43;;;;;;;;;2.00;2.00;;;;;19.50;47.45;100094.00;4995371;28;51082;-49
2021/10/31 04:28:09;;;;;;;;;2.00;2.00;;;;;19.50;47.30;100099.50;5014374;28;51206;-48
2021/10/31 04:30:34;;;;;;;;;3.25;3.25;;;;;19.50;47.20;100090.41;5014835;28;51398;-49
2021/10/31 04:33:00;;;;;;;;;2.00;2.00;;;;;19.50;47.05;100084.91;5014826;28;51113;-49
2021/10/31 04:35:25;;;;;;;;;3.75;2.75;;;;;19.50;47.32;100090.41;5014747;28;50949;-44
2021/10/31 04:37:53;;;;;;;;;4.00;2.50;;;;;19.49;47.25;100092.31;5015001;28;51039;-48
2021/10/31 04:40:21;;;;;;;;;4.00;3.00;;;;;19.50;47.14;100090.41;5015198;28;51278;-47
2021/10/31 04:42:47;;;;;;;;;3.00;2.00;;;;;19.49;47.32;100086.84;5014555;28;50974;-48
2021/10/31 04:45:12;;;;;;;;;3.00;3.00;;;;;19.49;47.39;100088.75;5015046;28;51533;-43
2021/10/31 04:47:38;;;;;;;;;2.00;2.00;;;;;19.49;47.14;100094.25;5014979;28;51104;-45
2021/10/31 04:50:04;;;;;;;;;3.00;2.00;;;;;19.48;47.34;100090.63;5013438;28;51119;-43
2021/10/31 04:52:31;;;;;;;;;4.00;3.75;;;;;19.49;47.00;100094.25;5014559;28;51186;-49
2021/10/31 04:54:57;;;;;;;;;3.00;3.00;;;;;19.48;47.39;100079.63;5016916;28;51127;-45
2021/10/31 04:57:22;;;;;;;;;1.75;1.75;;;;;19.48;47.19;100079.63;5018280;28;51169;-44
2021/10/31 04:59:47;;;;;;;;;2.00;2.00;;;;;19.48;47.15;100071.41;5018286;28;51174;-48
2021/10/31 05:02:13;;;;;;;;;2.00;2.00;;;;;19.48;47.24;100068.66;5000315;28;51443;-47
2021/10/31 05:04:38;;;;;;;;;2.25;2.25;;;;;19.48;47.13;100054.91;5017964;28;50950;-46
2021/10/31 05:07:04;;;;;;;;;3.50;2.00;;;;;19.47;46.91;100047.75;5018125;28;51224;-44
2021/10/31 05:09:29;;;;;;;;;2.00;2.00;;;;;19.47;47.30;100052.41;5018178;28;51139;-43
2021/10/31 05:11:54;;;;;;;;;2.50;2.00;;;;;19.47;47.24;100042.25;5017764;28;51699;-48
2021/10/31 05:14:20;;;;;;;;;2.50;1.50;;;;;19.47;47.32;100024.94;5017961;28;51130;-46
2021/10/31 05:16:45;;;;;;;;;4.00;2.25;;;;;19.46;47.20;100026.84;5017880;28;50959;-46
2021/10/31 05:19:11;;;;;;;;;3.00;2.00;;;;;19.47;47.42;100027.69;5017722;28;50960;-48
2021/10/31 05:21:36;;;;;;;;;3.25;2.75;;;;;19.45;47.09;100016.94;5017405;28;51513;-48
2021/10/31 05:24:02;;;;;;;;;1.50;1.50;;;;;19.46;47.28;100024.09;5018082;28;51212;-45
2021/10/31 05:26:28;;;;;;;;;1.50;1.50;;;;;19.46;47.08;100010.38;5012178;28;51079;-47
2021/10/31 05:28:55;;;;;;;;;3.00;2.25;;;;;19.46;47.13;100004.03;4997812;28;51051;-46
2021/10/31 05:31:21;;;;;;;;;1.25;1.25;;;;;19.46;47.02;99996.63;4997644;28;52780;-44
2021/10/31 05:33:47;;;;;;;;;1.50;1.50;;;;;19.46;47.24;100002.13;4997464;28;51099;-46
2021/10/31 05:36:12;;;;;;;;;2.00;2.00;;;;;19.45;47.17;99988.63;4997439;28;50992;-45
2021/10/31 05:38:38;;;;;;;;;1.25;1.25;;;;;19.45;47.09;99988.63;4997988;28;51130;-49
2021/10/31 05:41:03;;;;;;;;;3.25;3.00;;;;;19.44;47.01;99993.28;4997395;28;51956;-47
2021/10/31 05:43:30;;;;;;;;;3.00;2.00;;;;;19.45;47.11;99997.72;4997958;28;51091;-48
2021/10/31 05:45:57;;;;;;;;;4.00;2.00;;;;;19.44;47.33;99987.81;4997741;28;51079;-49
2021/10/31 05:48:24;;;;;;;;;2.75;1.25;;;;;19.43;47.13;99980.63;4997478;28;51205;-49
2021/10/31 05:50:49;;;;;;;;;1.00;1.00;;;;;19.44;47.02;99965.81;4997316;28;51883;-46
2021/10/31 05:53:14;;;;;;;;;3.25;2.75;;;;;19.45;47.20;99972.16;4997309;28;50971;-45
2021/10/31 05:55:40;;;;;;;;;2.00;2.00;;;;;19.44;47.32;99982.31;4997662;28;51292;-48
2021/10/31 05:58:06;;;;;;;;;1.00;1.00;;;;;19.45;47.42;99983.16;4997524;28;51252;-46
2021/10/31 06:00:33;;;;;;;;;2.00;1.75;;;;;19.44;47.10;99962.25;4997264;28;51029;-46
2021/10/31 06:02:58;;;;;;;;;3.25;2.00;;;;;19.44;47.39;99967.75;4995852;28;51115;-44
2021/10/31 06:05:23;;;;;;;;;3.00;1.00;;;;;19.44;47.43;99963.09;4996687;28;51015;-44
2021/10/31 06:07:49;;;;;;;;;1.00;1.00;;;;;19.45;47.23;99966.66;4997359;28;51300;-44
2021/10/31 06:10:14;;;;;;;;;2.00;1.25;;;;;19.45;47.21;99950.19;4996818;28;51802;-43
2021/10/31 06:12:45;;;;;;;;;2.25;1.00;;;;;19.44;47.51;99946.59;4997163;28;51015;-47
2021/10/31 06:15:12;;;;;;;;;1.75;1.75;;;;;19.44;47.18;99940.28;4996956;28;51103;-44
2021/10/31 06:17:38;;;;;;;;;2.00;2.00;;;;;19.43;47.52;99936.69;4997299;28;51285;-49
2021/10/31 06:20:06;;;;;;;;;2.50;2.00;;;;;19.44;47.37;99927.38;4996380;28;51990;-46
2021/10/31 06:22:31;;;;;;;;;1.00;1.00;;;;;19.44;47.19;99938.34;4996950;28;50905;-51
2021/10/31 06:24:56;;;;;;;;;1.00;1.00;;;;;19.43;47.46;99936.69;4997102;28;51051;-43
2021/10/31 06:27:22;;;;;;;;;3.00;1.00;;;;;19.43;47.23;99944.94;5009614;28;51142;-44
2021/10/31 06:29:47;;;;;;;;;1.50;1.50;;;;;19.43;47.47;99936.69;5016358;28;51769;-44
2021/10/31 06:32:13;;;;;;;;;2.00;2.00;;;;;19.42;47.10;99932.28;4998662;28;51130;-44
2021/10/31 06:34:38;;;;;;;;;1.25;1.25;;;;;19.43;47.38;99939.44;5016399;28;51136;-43
2021/10/31 06:37:03;;;;;;;;;1.75;1.75;;;;;19.44;47.23;99926.53;5016978;28;51359;-48
2021/10/31 06:39:29;;;;;;;;;1.75;1.75;;;;;19.42;47.37;99913.06;5016210;28;51741;-46
2021/10/31 06:41:54;;;;;;;;;3.00;1.00;;;;;19.43;47.45;99920.22;4998577;28;51038;-45
2021/10/31 06:44:19;;;;;;;;;0.75;0.75;;;;;19.43;47.15;99908.38;5016753;28;51178;-42
2021/10/31 06:46:45;;;;;;;;;2.25;1.00;;;;;19.44;47.01;99902.66;5016818;28;50998;-45
2021/10/31 06:49:12;;;;;;;;;1.00;1.00;;;;;19.43;47.40;99892.75;5016233;28;51188;-46
2021/10/31 06:51:37;;;;;;;;;1.75;1.25;;;;;19.43;47.34;99880.94;5016034;28;51334;-49
2021/10/31 06:54:03;;;;;;;;;1.25;1.25;;;;;19.43;47.21;99898.25;5016109;28;51031;-47
2021/10/31 06:56:28;;;;;;;;;1.00;1.00;;;;;19.43;47.17;99902.91;5016400;28;51323;-44
2021/10/31 06:58:54;;;;;;;;;0.00;0.00;;;;;19.43;47.40;99901.00;4998080;28;53067;-47
2021/10/31 07:01:20;;;;;;;;;1.50;1.50;;;;;19.44;47.22;99893.59;5016330;28;51146;-49
2021/10/31 07:03:48;;;;;;;;;2.50;2.00;;;;;19.44;47.31;99890.84;5015856;28;51078;-47
2021/10/31 07:06:15;;;;;;;;;1.00;1.00;;;;;19.43;47.46;99880.94;5016141;28;51187;-47
2021/10/31 07:08:40;;;;;;;;;3.00;1.50;;;;;19.43;47.31;99865.28;5015843;28;51855;-48
2021/10/31 07:11:06;;;;;;;;;1.25;1.25;;;;;19.43;47.04;99854.31;5016345;28;51232;-47
2021/10/31 07:13:31;;;;;;;;;3.00;2.25;;;;;19.44;47.46;99866.13;5016092;28;51543;-49
2021/10/31 07:15:56;;;;;;;;;2.00;2.00;;;;;19.42;47.17;99852.63;5015948;28;51294;-47
2021/10/31 07:18:22;;;;;;;;;2.00;2.00;;;;;19.44;47.51;99868.88;5015071;28;51080;-43
2021/10/31 07:20:47;;;;;;;;;2.00;2.00;;;;;19.43;47.19;99857.03;5015715;28;51067;-47
2021/10/31 07:23:12;;;;;;;;;1.25;1.25;;;;;19.43;47.50;99865.28;5016311;28;51058;-46
2021/10/31 07:25:38;;;;;;;;;1.00;1.00;;;;;19.42;47.12;99863.63;5015992;28;51171;-45
2021/10/31 07:28:03;;;;;;;;;1.00;1.00;;;;;19.42;47.54;99855.38;4996785;28;51782;-49
2021/10/31 07:30:29;;;;;;;;;1.25;1.25;;;;;19.42;47.38;99852.63;4995838;28;51003;-43
2021/10/31 07:32:59;;;;;;;;;3.00;1.00;;;;;19.43;47.25;99854.31;4995570;28;51249;-46
2021/10/31 07:35:25;;;;;;;;;0.50;0.50;;;;;19.43;47.45;99857.03;4995734;28;51067;-43
2021/10/31 07:37:51;;;;;;;;;2.00;2.00;;;;;19.43;47.40;99848.81;4995646;28;51033;-43
2021/10/31 07:40:17;;;;;;;;;1.00;1.00;;;;;19.42;47.21;99838.91;4995707;28;51023;-46
2021/10/31 07:42:42;;;;;;;;;0.75;0.75;;;;;19.43;47.26;99843.31;4995665;28;51110;-44
2021/10/31 07:45:08;;;;;;;;;1.75;1.75;;;;;19.44;47.43;99838.66;4995928;28;50998;-44
2021/10/31 07:47:34;;;;;;;;;2.75;2.00;;;;;19.44;47.25;99841.41;4995668;28;50938;-47
2021/10/31 07:49:59;;;;;;;;;2.75;1.50;;;;;19.43;47.31;99848.81;4977695;28;51149;-46
2021/10/31 07:52:25;;;;;;;;;2.00;2.00;;;;;19.44;47.28;99844.16;4995474;28;51133;-45
2021/10/31 07:54:51;;;;;;;;;1.00;1.00;;;;;19.42;47.17;99833.41;4995866;28;51199;-44
2021/10/31 07:57:22;;;;;;;;;1.25;1.00;;;;;19.44;47.32;99834.00;4995776;28;50980;-50
2021/10/31 07:59:47;;;;;;;;;1.00;1.00;;;;;19.43;47.14;99832.31;4995647;28;51038;-50
2021/10/31 08:02:13;;;;;;;;;2.00;2.00;;;;;19.44;47.13;99812.03;4995732;28;51203;-46
2021/10/31 08:04:38;;;;;;;;;1.50;1.50;;;;;19.43;47.34;99821.34;4995561;28;51134;-46
2021/10/31 08:07:04;;;;;;;;;2.00;2.00;;;;;19.44;47.29;99814.78;4995294;28;51021;-45
2021/10/31 08:09:29;;;;;;;;;1.00;1.00;;;;;19.44;47.29;99805.69;4995527;28;50952;-49
2021/10/31 08:11:54;;;;;;;;;1.50;1.50;;;;;19.43;47.20;99813.09;4995613;28;51148;-48
2021/10/31 08:14:20;;;;;;;;;2.00;2.00;;;;;19.44;47.41;99800.19;4995716;28;51073;-47
2021/10/31 08:16:46;;;;;;;;;1.00;1.00;;;;;19.43;47.46;99807.59;4995271;28;52882;-48
2021/10/31 08:19:11;;;;;;;;;1.25;1.00;;;;;19.43;47.13;99809.53;4993411;28;51079;-47
2021/10/31 08:21:38;;;;;;;;;1.50;1.50;;;;;19.45;46.95;99804.63;4995896;28;51432;-45
2021/10/31 08:24:05;;;;;;;;;1.50;1.50;;;;;19.45;47.26;99797.22;4995639;28;51039;-46
2021/10/31 08:26:30;;;;;;;;;2.00;2.00;;;;;19.45;47.04;99786.22;5000584;28;51105;-44
2021/10/31 08:28:56;;;;;;;;;2.00;1.00;;;;;19.45;47.12;99777.97;5017153;28;51138;-44
2021/10/31 08:31:25;;;;;;;;;3.00;2.00;;;;;19.45;47.23;99783.47;5018544;28;51051;-48
2021/10/31 08:33:57;;;;;;;;;1.75;1.75;;;;;19.45;47.24;99775.25;5000721;28;51371;-47
2021/10/31 08:36:23;;;;;;;;;1.50;1.50;;;;;19.46;47.13;99770.56;5017737;28;52110;-45
2021/10/31 08:38:49;;;;;;;;;2.00;1.25;;;;;19.46;47.30;99765.09;5018226;28;50996;-48
2021/10/31 08:41:18;;;;;;;;;3.00;1.00;;;;;19.45;47.24;99764.25;5000381;28;51719;-51
2021/10/31 08:43:43;;;;;;;;;2.50;2.00;;;;;19.44;47.27;99743.38;5018674;28;51087;-47
2021/10/31 08:46:10;;;;;;;;;1.00;1.00;;;;;19.46;47.20;99740.38;5018399;28;51353;-50
2021/10/31 08:48:38;;;;;;;;;2.00;1.75;;;;;19.47;47.28;99742.03;5018032;28;51180;-48
2021/10/31 08:51:03;;;;;;;;;1.00;1.00;;;;;19.46;47.60;99748.59;5018104;28;51013;-48
2021/10/31 08:53:29;;;;;;;;;2.00;2.00;;;;;19.46;47.48;99737.63;5018411;28;51063;-50
2021/10/31 08:55:57;;;;;;;;;3.00;3.00;;;;;19.47;47.55;99728.31;5018076;28;52002;-46
2021/10/31 08:58:22;;;;;;;;;1.75;1.00;;;;;19.47;47.33;99734.63;5017693;28;51110;-47
2021/10/31 09:00:47;;;;;;;;;2.50;2.00;;;;;19.46;47.30;99718.41;5018214;28;51067;-49
2021/10/31 09:03:13;;;;;;;;;2.50;2.50;;;;;19.47;47.38;99714.56;5018262;28;51067;-51
2021/10/31 09:05:38;;;;;;;;;7.25;2.75;;;;;19.46;47.48;99697.25;5017339;28;51000;-46
2021/10/31 09:08:04;;;;;;;;;4.25;4.25;;;;;19.46;47.12;99696.41;5017512;28;51084;-43
2021/10/31 09:10:30;;;;;;;;;3.00;3.00;;;;;19.47;47.27;99693.44;5017719;28;51113;-46
2021/10/31 09:12:56;;;;;;;;;2.75;2.75;;;;;19.46;47.50;99691.75;5000207;28;51415;-51
2021/10/31 09:15:22;;;;;;;;;5.00;3.00;;;;;19.47;47.20;99690.69;5017497;28;51983;-48
2021/10/31 09:17:47;;;;;;;;;2.00;2.00;;;;;19.47;47.66;99676.94;5017416;28;51029;-50
2021/10/31 09:20:13;;;;;;;;;2.75;2.75;;;;;19.47;47.10;99665.97;5017817;28;50984;-48
2021/10/31 09:22:38;;;;;;;;;3.50;3.50;;;;;19.48;47.44;99653.91;5018027;28;50975;-46
2021/10/31 09:25:04;;;;;;;;;6.75;2.25;;;;;19.48;47.50;99647.56;5017357;28;51015;-46
2021/10/31 09:27:31;;;;;;;;;2.25;2.25;;;;;19.49;47.39;99652.84;5003673;28;51454;-47
2021/10/31 09:29:57;;;;;;;;;2.50;2.50;;;;;19.49;47.32;99655.59;4997577;28;51118;-49
2021/10/31 09:32:25;;;;;;;;;3.00;3.00;;;;;19.49;47.46;99652.00;4979980;28;51294;-44
2021/10/31 09:34:52;;;;;;;;;2.75;2.50;;;;;19.51;47.25;99658.94;4996634;28;51034;-44
2021/10/31 09:37:17;;;;;;;;;2.00;2.00;;;;;19.51;47.27;99666.34;4995986;28;51042;-45
2021/10/31 09:39:42;;;;;;;;;2.00;2.00;;;;;19.50;47.23;99656.44;4996624;28;51316;-46
2021/10/31 09:42:10;;;;;;;;;3.50;3.00;;;;;19.51;47.47;99650.69;4997690;28;50920;-45
2021/10/31 09:44:48;;;;;;;;;4.00;2.00;;;;;19.51;47.60;99634.19;4979581;28;51947;-44
2021/10/31 09:47:14;;;;;;;;;2.75;2.75;;;;;19.51;47.36;99634.19;4997032;28;51191;-45
2021/10/31 09:49:41;;;;;;;;;2.00;2.00;;;;;19.52;47.49;99624.06;4996764;28;51095;-44
2021/10/31 09:52:07;;;;;;;;;2.25;2.00;;;;;19.52;47.36;99610.31;4997691;28;51039;-46
2021/10/31 09:54:32;;;;;;;;;1.75;1.75;;;;;19.51;47.52;99609.50;4996468;28;51023;-46
2021/10/31 09:56:58;;;;;;;;;1.00;1.00;;;;;19.53;47.35;99601.81;4996961;28;51014;-50
2021/10/31 09:59:26;;;;;;;;;2.75;2.75;;;;;19.54;47.45;99605.41;4996835;28;50966;-46
2021/10/31 10:02:11;;;;;;;;;2.50;2.00;;;;;19.54;47.41;99594.41;4997377;28;51234;-47
2021/10/31 10:04:49;;;;;;;;;2.00;2.00;;;;;19.54;47.22;99592.50;4996286;28;52256;-45
2021/10/31 10:07:16;;;;;;;;;2.75;2.25;;;;;19.54;47.50;99577.94;4996914;28;51060;-48
2021/10/31 10:09:53;;;;;;;;;2.25;2.25;;;;;19.55;47.40;99574.97;4997158;28;51208;-46
2021/10/31 10:12:20;;;;;;;;;1.75;1.75;;;;;19.55;47.14;99577.72;4997295;28;51178;-44
2021/10/31 10:15:04;;;;;;;;;2.50;2.00;;;;;19.57;47.53;99574.72;4996842;28;52133;-43
2021/10/31 10:17:50;;;;;;;;;2.00;2.00;;;;;19.57;47.34;99574.72;4996708;28;51128;-46
2021/10/31 10:20:17;;;;;;;;;3.00;2.00;;;;;19.57;47.47;99570.06;4996185;28;50988;-49
2021/10/31 10:22:44;;;;;;;;;1.00;1.00;;;;;19.57;47.17;99561.81;4997303;28;51321;-46
2021/10/31 10:25:10;;;;;;;;;3.00;2.75;;;;;19.58;47.57;99552.50;4978719;28;51201;-52
2021/10/31 10:27:57;;;;;;;;;3.75;1.75;;;;;19.59;47.20;99543.19;5010871;28;51023;-49
2021/10/31 10:30:25;;;;;;;;;2.00;2.00;;;;;19.61;47.47;99545.69;5016422;28;51278;-47
2021/10/31 10:32:56;;;;;;;;;1.00;1.00;;;;;19.61;47.39;99534.72;5016369;28;51239;-48
2021/10/31 10:35:25;;;;;;;;;1.50;1.50;;;;;19.63;47.47;99528.97;5015706;28;51904;-49
2021/10/31 10:37:52;;;;;;;;;3.50;2.00;;;;;19.64;47.05;99517.72;5016091;28;51012;-55
2021/10/31 10:40:28;;;;;;;;;3.00;2.00;;;;;19.65;47.23;99524.03;5016143;28;50983;-46
2021/10/31 10:42:57;;;;;;;;;2.00;2.00;;;;;19.66;47.46;99517.47;5016309;28;51028;-49
2021/10/31 10:45:30;;;;;;;;;3.00;3.00;;;;;19.65;47.60;99513.06;5015691;28;53872;-47
2021/10/31 10:48:02;;;;;;;;;3.00;3.00;;;;;19.67;47.43;99514.47;5015513;28;51091;-43
2021/10/31 10:50:44;;;;;;;;;3.25;3.25;;;;;19.68;47.56;99510.63;5015591;28;51317;-48
2021/10/31 10:53:17;;;;;;;;;3.50;3.00;;;;;19.68;47.31;99510.63;5014830;28;51265;-49
2021/10/31 10:55:44;;;;;;;;;2.00;2.00;;;;;19.69;47.51;99512.28;5015167;28;51093;-45
2021/10/31 10:58:16;;;;;;;;;4.00;2.75;;;;;19.70;47.73;99503.00;5015296;28;50993;-49
2021/10/31 11:00:47;;;;;;;;;4.50;2.50;;;;;19.71;47.30;99503.84;5015485;28;51101;-45
2021/10/31 11:03:17;;;;;;;;;4.50;3.50;;;;;19.72;47.40;99511.00;5015454;28;51067;-49
2021/10/31 11:05:46;;;;;;;;;3.25;3.25;;;;;19.71;47.58;99493.69;5014285;28;51541;-47
2021/10/31 11:08:15;;;;;;;;;3.25;3.25;;;;;19.72;47.64;99500.84;5015101;28;51149;-48
2021/10/31 11:11:12;;;;;;;;;6.25;6.00;;;;;19.73;47.63;99501.66;5015323;28;51065;-45
2021/10/31 11:13:52;;;;;;;;;7.00;5.25;;;;;19.74;47.55;99497.84;5004716;28;51256;-48
2021/10/31 11:16:20;;;;;;;;;4.00;4.00;;;;;19.75;47.62;99496.75;4988011;28;51111;-44
2021/10/31 11:18:45;;;;;;;;;7.50;7.00;;;;;19.78;47.43;99507.22;4987918;28;51238;-45
2021/10/31 11:21:11;;;;;;;;;6.25;6.25;;;;;19.78;47.48;99493.50;4987474;28;50895;-46
2021/10/31 11:23:38;;;;;;;;;4.25;3.75;;;;;19.78;47.79;99477.00;4987577;28;51122;-49
2021/10/31 11:26:10;;;;;;;;;8.75;8.25;;;;;19.78;47.88;99488.00;4989949;28;51003;-49
2021/10/31 11:28:36;;;;;;;;;5.25;2.25;;;;;19.78;47.60;99464.09;5007645;28;51187;-46
2021/10/31 11:31:03;;;;;;;;;7.25;6.25;;;;;19.79;47.71;99473.16;5006631;28;51868;-45
2021/10/31 11:33:30;;;;;;;;;8.25;5.75;;;;;19.78;48.00;99466.84;5007267;28;51152;-47
2021/10/31 11:35:55;;;;;;;;;7.25;6.50;;;;;19.79;47.85;99467.66;5007323;28;51189;-47